»·PEaware :: N891AT KPSP-KCRQ

N891AT :: KPSP-KCRQ

FLIGHT INFORMATION

Flight Status: Arrived
Operator: Privately registered:
United States
More flights under this callsign
Pilot: Dean S. (16265)
Aircraft: CESSNA 172RG CUTLASS
(C72R)
More flights by this aircraft type
Origin: KPSP Palm Springs Intl
United States
Destination: KCRQ McClellan-Palomar
United States
More flights between these airports :: More routes between these airports
Route: +BALDI BONDO
File this flight plan on PilotEdge
Remarks:
Altitude:
(Current/Filed)
120ft
Speed:
(Current/Filed)
8500kts
Departed: 18-Sep-17 09:05 AM
Arrived: 18-Sep-17 09:49 AM
Distance/Time
Traveled:
57nm/0:44
Distance/Time
To Go:
Arrived

Flight Plot

Page will automatically refresh every two minutes.

Flight plan parsing failed; only flown route is shown


Map Options




Map Legend


Flown Route
Filed Route
Departure Airport
Arrival Airport
Navaid (VOR, NDB)
Fix

Horizontal Profiles

Position Reports

Time Latitude Longitude Heading Altitude Ground
Speed
18-Sep-17 08:48 33.825169 -116.508950 13 481ft 0kts
18-Sep-17 08:49 33.825169 -116.508950 13 481ft 0kts
18-Sep-17 08:50 33.825170 -116.508950 13 481ft 0kts
18-Sep-17 08:51 33.825170 -116.508949 13 481ft 0kts
18-Sep-17 08:52 33.825170 -116.508949 13 481ft 0kts
18-Sep-17 08:53 33.825170 -116.508949 13 481ft 0kts
18-Sep-17 08:54 33.825170 -116.508949 13 481ft 0kts
18-Sep-17 08:55 33.825171 -116.508949 13 481ft 0kts
18-Sep-17 08:56 33.825171 -116.508949 13 481ft 0kts
18-Sep-17 08:57 33.825171 -116.508949 13 481ft 0kts
18-Sep-17 08:58 33.825171 -116.508949 13 481ft 0kts
18-Sep-17 08:59 33.825171 -116.508949 13 481ft 0kts
18-Sep-17 09:00 33.825172 -116.508949 13 481ft 0kts
18-Sep-17 09:01 33.825891 -116.507787 98 481ft 12kts
18-Sep-17 09:02 33.824878 -116.505177 123 481ft 12kts
18-Sep-17 09:03 33.820118 -116.500946 142 481ft 24kts
18-Sep-17 09:04 33.817497 -116.498534 133 481ft 8kts
18-Sep-17 09:05 33.817643 -116.497897 54 481ft 0kts
18-Sep-17 09:06 33.817643 -116.497897 54 481ft 0kts
18-Sep-17 09:07 33.817643 -116.497897 54 481ft 0kts
18-Sep-17 09:08 33.818524 -116.497757 324 480ft 5kts
18-Sep-17 09:09 33.831726 -116.509811 322 698ft 95kts
18-Sep-17 09:10 33.853754 -116.529950 327 1580ft 97kts
18-Sep-17 09:11 33.875692 -116.549538 301 2426ft 103kts
18-Sep-17 09:12 33.888975 -116.579078 299 3297ft 100kts
18-Sep-17 09:13 33.900389 -116.610158 287 4070ft 102kts
18-Sep-17 09:14 33.902866 -116.643994 270 4810ft 99kts
18-Sep-17 09:15 33.908955 -116.677760 279 5426ft 106kts
18-Sep-17 09:16 33.899282 -116.705891 235 6338ft 75kts
18-Sep-17 09:17 33.881119 -116.725214 195 6883ft 88kts
18-Sep-17 09:18 33.861607 -116.738105 219 7575ft 75kts
18-Sep-17 09:19 33.841668 -116.736692 189 8127ft 71kts
18-Sep-17 09:20 33.821805 -116.734025 166 8597ft 79kts
18-Sep-17 09:21 33.800597 -116.725414 159 9061ft 88kts
18-Sep-17 09:22 33.782797 -116.701555 126 9467ft 98kts
18-Sep-17 09:23 33.765735 -116.664480 111 9059ft 149kts
18-Sep-17 09:24 33.755505 -116.620516 100 8823ft 138kts
18-Sep-17 09:25 33.746157 -116.573560 132 8008ft 155kts
18-Sep-17 09:26 33.706165 -116.561173 176 7676ft 140kts
18-Sep-17 09:27 33.671269 -116.567628 199 8092ft 130kts
18-Sep-17 09:28 33.638120 -116.581661 198 8494ft 126kts
18-Sep-17 09:29 33.604169 -116.597658 203 8607ft 135kts
18-Sep-17 09:30 33.572304 -116.620310 215 8781ft 134kts
18-Sep-17 09:31 33.538682 -116.640465 225 8654ft 145kts
18-Sep-17 09:32 33.512692 -116.673550 227 8743ft 135kts
18-Sep-17 09:33 33.487736 -116.707343 228 8728ft 134kts
18-Sep-17 09:34 33.463133 -116.741360 225 8700ft 135kts
18-Sep-17 09:35 33.431553 -116.765898 221 8639ft 137kts
18-Sep-17 09:36 33.406924 -116.800319 219 8576ft 138kts
18-Sep-17 09:37 33.376377 -116.826452 233 8487ft 139kts
18-Sep-17 09:38 33.351631 -116.860020 221 8529ft 135kts
18-Sep-17 09:39 33.322651 -116.888532 217 8538ft 134kts
18-Sep-17 09:40 33.292648 -116.915077 215 8519ft 128kts
18-Sep-17 09:41 33.262874 -116.940125 217 7357ft 123kts
18-Sep-17 09:42 33.242337 -116.974281 227 6129ft 125kts
18-Sep-17 09:43 33.218145 -117.003265 225 5515ft 121kts
18-Sep-17 09:44 33.194462 -117.032967 226 5221ft 123kts
18-Sep-17 09:45 33.180554 -117.070413 253 4327ft 126kts
18-Sep-17 09:46 33.170800 -117.112244 253 2826ft 124kts
18-Sep-17 09:47 33.162815 -117.145365 253 2283ft 89kts
18-Sep-17 09:48 33.155814 -117.174015 253 1741ft 89kts
18-Sep-17 09:49 33.144778 -117.195669 240 1705ft 72kts
18-Sep-17 09:50 33.137989 -117.218237 256 1376ft 61kts
18-Sep-17 09:51 33.135191 -117.238156 262 843ft 53kts
18-Sep-17 09:52 33.132266 -117.255678 260 754ft 61kts
18-Sep-17 09:53 33.129332 -117.274213 255 334ft 15kts
18-Sep-17 09:54 33.128577 -117.274276 176 335ft 7kts

Navigation Log

Ident Type
Flight plan parsing failed, navigation log unavailable